KBJI/BJI METAR and TAF weather

Enter ICAO airport designator
Station Type Date Time Source
KBJI METAR 2018/04/21 20:56 UTC NOAA

KBJI 212056Z AUTO 11004KT 10SM CLR 15/00 A3029 RMK AO2 T01510004


Station Type Date Time Source
KBJI Decoded METAR 2018/04/21 20:56 UTC NOAA

Bemidji, MN, United States (KBJI) 47-30N 094-56W 420M
Apr 21, 2018 - 04:56 PM EDT / 2018.04.21 2056 UTC
Wind: from the ESE (110 degrees) at 5 MPH (4 KT):0
Visibility: 10 mile(s):0
Sky conditions: clear
Temperature: 59.2 F (15.1 C)
Dew Point: 32.7 F (0.4 C)
Relative Humidity: 36%
Pressure (altimeter): 30.29 in. Hg (1025 hPa)
ob: KBJI 212056Z AUTO 11004KT 10SM CLR 15/00 A3029 RMK AO2 T01510004
cycle: 21

Station Type Date Time Source
KBJI TAF 2018/04/21 18:22 UTC NOAA

TAF KBJI 211720Z 2118/2218 19006KT P6SM FEW100


Example: see airport list